Time;durP1;ratioP1;P1;durP2;ratioP2;P2;SDS_P1;SDS_P2;PMS_P1;PMS_P2;Temp;Humidity;BMP_temperature;BMP_pressure;BME280_temperature;BME280_humidity;BME280_pressure;Samples;Min_cycle;Max_cycle;Signal;HPM_P1;HPM_P2
2022/01/25 00:15:01;;;;;;;40.33;32.42;;;;;;;-2.50;48.61;102992.38;5073211;28;20398;-76
2022/01/25 00:24:51;;;;;;;24.48;20.52;;;;;;;-2.49;48.32;103001.91;5072745;28;20561;-76
2022/01/25 00:27:39;;;;;;;22.75;18.13;;;;;;;-2.60;48.76;102993.16;5072964;28;20422;-75
2022/01/25 00:30:28;;;;;;;19.20;16.40;;;;;;;-2.47;48.36;102997.59;5072408;28;20414;-74
2022/01/25 00:32:56;;;;;;;21.35;17.80;;;;;;;-2.32;47.94;102998.56;5057569;28;20452;-76
2022/01/25 00:35:23;;;;;;;22.33;18.50;;;;;;;-2.37;47.85;102995.97;5072349;28;20414;-76
2022/01/25 00:37:50;;;;;;;19.30;16.20;;;;;;;-2.33;47.48;102997.72;5055274;28;20454;-76
2022/01/25 00:40:19;;;;;;;19.38;16.65;;;;;;;-2.27;47.55;103002.94;5072661;28;20411;-76
2022/01/25 00:42:46;;;;;;;19.80;16.47;;;;;;;-2.35;47.38;102996.84;5071676;28;20466;-75
2022/01/25 00:45:15;;;;;;;19.20;15.43;;;;;;;-2.29;47.22;102994.28;5072313;28;20409;-75
2022/01/25 00:47:46;;;;;;;19.98;17.42;;;;;;;-2.27;47.27;103002.94;5072555;28;20437;-76
2022/01/25 00:50:15;;;;;;;18.48;15.43;;;;;;;-2.42;47.47;102997.63;5072392;28;20419;-76
2022/01/25 00:55:30;;;;;;;28.27;25.00;;;;;;;-2.26;47.07;103007.28;5072158;28;20406;-76
2022/01/25 00:57:57;;;;;;;20.23;16.60;;;;;;;-2.36;47.35;102999.41;5072083;28;20905;-76
2022/01/25 01:00:25;;;;;;;21.08;17.50;;;;;;;-2.38;47.35;102996.78;5071786;28;20498;-77
2022/01/25 01:02:52;;;;;;;17.75;14.93;;;;;;;-2.40;47.27;102989.88;5071593;28;20514;-76
2022/01/25 01:05:19;;;;;;;19.13;16.08;;;;;;;-2.48;47.18;102993.25;5071631;28;20437;-76
2022/01/25 01:07:46;;;;;;;18.50;15.45;;;;;;;-2.63;47.59;102988.81;5071645;28;20407;-76
2022/01/25 01:10:18;;;;;;;18.27;15.20;;;;;;;-2.59;47.42;102984.53;5071538;28;20609;-75
2022/01/25 01:15:40;;;;;;;19.00;15.82;;;;;;;-2.57;47.07;102987.16;5065404;28;20458;-75
2022/01/25 01:29:20;;;;;;;34.47;27.42;;;;;;;-2.81;47.12;102952.34;5071003;28;20919;-75
2022/01/25 01:31:56;;;;;;;22.08;17.48;;;;;;;-2.84;46.97;102958.38;5071160;28;20463;-74
2022/01/25 01:37:35;;;;;;;28.33;21.83;;;;;;;-2.92;47.13;102949.66;5037938;28;20488;-75
2022/01/25 01:45:47;;;;;;;24.77;19.55;;;;;;;-2.90;47.23;102941.88;5034460;28;20415;-75
2022/01/25 01:48:26;;;;;;;23.92;19.48;;;;;;;-2.94;46.87;102927.13;5070502;28;20796;-74
2022/01/25 01:50:54;;;;;;;22.73;18.17;;;;;;;-2.91;46.91;102921.97;5070546;28;20476;-74
2022/01/25 01:53:21;;;;;;;21.92;17.10;;;;;;;-2.81;46.51;102916.00;5070154;28;20407;-74
2022/01/25 01:55:48;;;;;;;22.77;17.80;;;;;;;-2.79;46.61;102918.63;5070407;28;20774;-74
2022/01/25 01:58:15;;;;;;;28.13;22.27;;;;;;;-2.74;46.14;102917.78;5070308;28;20481;-74
2022/01/25 02:00:47;;;;;;;29.40;22.80;;;;;;;-2.88;46.27;102927.19;5069894;28;20468;-74
2022/01/25 02:03:15;;;;;;;23.63;19.10;;;;;;;-2.81;46.63;102926.38;5070307;28;20441;-74
2022/01/25 02:05:42;;;;;;;21.88;17.08;;;;;;;-2.91;46.57;102932.34;5070186;28;20503;-74
2022/01/25 02:08:10;;;;;;;24.88;18.92;;;;;;;-2.84;46.50;102923.75;5070638;28;20446;-74
2022/01/25 02:10:37;;;;;;;21.25;16.40;;;;;;;-2.89;46.44;102930.66;5052092;28;20410;-74
2022/01/25 02:13:05;;;;;;;21.85;17.10;;;;;;;-2.90;46.16;102923.69;5070024;28;20797;-74
2022/01/25 02:15:32;;;;;;;25.70;19.52;;;;;;;-2.79;45.95;102924.69;5070079;28;20430;-74
2022/01/25 02:23:28;;;;;;;30.95;22.45;;;;;;;-2.77;45.61;102925.56;5069867;28;20531;-76
2022/01/25 02:25:57;;;;;;;45.40;31.48;;;;;;;-3.03;46.27;102921.00;5068979;28;20418;-74
2022/01/25 02:28:27;;;;;;;32.22;24.02;;;;;;;-2.90;45.95;102923.69;5069760;28;20510;-74
2022/01/25 02:30:54;;;;;;;38.25;26.60;;;;;;;-3.06;46.30;102921.00;5069584;28;20532;-74
2022/01/25 02:33:22;;;;;;;28.13;19.95;;;;;;;-3.08;46.18;102917.50;5069936;28;20411;-75
2022/01/25 02:35:51;;;;;;;36.80;25.92;;;;;;;-3.07;46.13;102913.19;5069490;28;20502;-74
2022/01/25 02:38:21;;;;;;;35.63;25.13;;;;;;;-3.18;46.44;102907.03;5069510;28;21003;-75
2022/01/25 02:40:49;;;;;;;36.85;25.70;;;;;;;-3.14;46.21;102901.91;5069846;28;20411;-74
2022/01/25 02:43:18;;;;;;;36.45;25.45;;;;;;;-3.26;46.58;102901.78;5069997;28;20426;-75
2022/01/25 02:46:03;;;;;;;41.03;28.63;;;;;;;-3.26;46.63;102901.78;5070990;28;20415;-75
2022/01/25 02:48:30;;;;;;;39.40;28.90;;;;;;;-3.18;46.54;102901.84;5074168;28;20413;-75
2022/01/25 02:50:59;;;;;;;34.10;26.38;;;;;;;-3.16;46.52;102895.84;5074188;28;20419;-75
2022/01/25 02:53:27;;;;;;;36.47;27.25;;;;;;;-3.20;46.54;102904.44;5073500;28;20402;-75
2022/01/25 02:55:54;;;;;;;27.15;20.60;;;;;;;-3.06;45.92;102900.25;5051661;28;20498;-75
2022/01/25 02:58:21;;;;;;;32.77;24.53;;;;;;;-3.11;46.16;102904.50;5069093;28;20952;-75
2022/01/25 03:00:49;;;;;;;43.00;35.05;;;;;;;-3.14;46.17;102894.13;5069591;28;20415;-75
2022/01/25 03:03:16;;;;;;;24.77;19.95;;;;;;;-3.06;45.89;102894.19;5051517;28;20427;-75
2022/01/25 03:05:44;;;;;;;27.00;22.42;;;;;;;-3.00;45.75;102883.88;5069790;28;20418;-75
2022/01/25 03:08:14;;;;;;;27.35;21.00;;;;;;;-3.08;46.12;102878.63;5069338;28;20418;-75
2022/01/25 03:10:45;;;;;;;26.70;20.70;;;;;;;-3.06;46.03;102871.72;5069478;28;20411;-75
2022/01/25 03:13:17;;;;;;;27.88;20.42;;;;;;;-3.05;45.86;102872.59;5069140;28;20449;-75
2022/01/25 03:18:42;;;;;;;23.13;18.63;;;;;;;-3.25;46.32;102868.06;5068812;28;20406;-76
2022/01/25 03:21:20;;;;;;;23.20;18.20;;;;;;;-3.27;46.32;102869.78;5069197;28;20419;-75
2022/01/25 03:23:49;;;;;;;24.80;18.95;;;;;;;-3.20;45.99;102857.78;5069169;28;20462;-74
2022/01/25 03:26:17;;;;;;;24.25;19.10;;;;;;;-3.21;46.36;102850.84;5069603;28;20434;-74
2022/01/25 03:28:44;;;;;;;23.40;18.38;;;;;;;-3.20;46.17;102844.81;5069550;28;20421;-74
2022/01/25 03:31:12;;;;;;;26.80;18.90;;;;;;;-3.19;46.19;102845.66;5069192;28;20874;-75
2022/01/25 03:33:39;;;;;;;24.13;18.73;;;;;;;-3.17;46.04;102846.56;5069379;28;20422;-74
2022/01/25 03:36:07;;;;;;;46.80;38.50;;;;;;;-3.02;45.98;102857.94;5069536;28;20490;-74
2022/01/25 03:38:36;;;;;;;25.58;19.85;;;;;;;-3.05;45.76;102854.44;5073184;28;20415;-75
2022/01/25 03:41:07;;;;;;;25.98;19.25;;;;;;;-3.06;45.79;102855.31;5073528;28;20412;-75
2022/01/25 03:43:35;;;;;;;35.70;32.00;;;;;;;-3.02;45.85;102857.94;5071453;28;20468;-73
2022/01/25 03:46:07;;;;;;;26.13;20.17;;;;;;;-3.17;46.07;102854.34;5069673;28;20816;-75
2022/01/25 03:51:18;;;;;;;27.83;21.77;;;;;;;-3.17;45.67;102860.38;5069527;28;20460;-75
2022/01/25 03:53:45;;;;;;;26.63;21.20;;;;;;;-3.14;45.81;102867.31;5072917;28;20430;-73
2022/01/25 03:56:14;;;;;;;25.17;20.80;;;;;;;-3.20;45.82;102860.38;5054772;28;20414;-74
2022/01/25 03:58:41;;;;;;;26.05;20.50;;;;;;;-3.35;46.08;102861.06;5072822;28;20438;-74
2022/01/25 04:01:08;;;;;;;32.70;24.27;;;;;;;-3.30;46.20;102863.72;5072545;28;20484;-74
2022/01/25 04:03:40;;;;;;;32.33;23.58;;;;;;;-3.27;46.22;102864.59;5072151;28;21014;-75
2022/01/25 04:06:07;;;;;;;35.33;28.05;;;;;;;-3.29;46.31;102862.88;5071027;28;20410;-75
2022/01/25 04:08:36;;;;;;;45.20;28.53;;;;;;;-3.22;46.20;102868.13;5072334;28;20868;-74
2022/01/25 04:11:03;;;;;;;28.63;20.40;;;;;;;-3.34;45.94;102861.97;5072074;28;20411;-75
2022/01/25 04:13:31;;;;;;;27.67;22.77;;;;;;;-3.34;46.14;102860.22;5072193;28;20924;-75
2022/01/25 04:16:05;;;;;;;35.10;30.80;;;;;;;-3.43;46.30;102855.84;5072337;28;20431;-74
2022/01/25 04:18:36;;;;;;;31.70;24.27;;;;;;;-3.51;46.39;102854.88;5072083;28;20411;-75
2022/01/25 04:21:07;;;;;;;40.50;35.10;;;;;;;-3.43;46.31;102842.88;5071753;28;20414;-74
2022/01/25 04:26:18;;;;;;;46.60;34.20;;;;;;;-3.36;45.76;102837.75;5072246;28;20406;-74
2022/01/25 04:28:47;;;;;;;38.75;28.60;;;;;;;-3.43;46.06;102836.81;5072338;28;20415;-75
2022/01/25 04:31:16;;;;;;;36.17;28.40;;;;;;;-3.38;45.96;102832.56;5072574;28;20726;-75
2022/01/25 04:33:55;;;;;;;36.35;28.92;;;;;;;-3.41;45.98;102835.09;5072180;28;20422;-75
2022/01/25 04:36:49;;;;;;;33.83;25.08;;;;;;;-3.31;45.93;102838.66;5072072;28;20445;-76
2022/01/25 04:50:36;;;;;;;34.67;27.20;;;;;;;-3.22;45.69;102828.38;5070426;28;20461;-73
2022/01/25 04:53:11;;;;;;;29.77;26.53;;;;;;;-3.28;45.54;102820.53;5070340;28;20411;-76
2022/01/25 04:55:44;;;;;;;30.35;23.67;;;;;;;-3.30;45.65;102824.84;5071429;28;20411;-75
2022/01/25 04:58:17;;;;;;;43.87;30.87;;;;;;;-3.28;45.60;102817.97;5071685;28;20832;-75
2022/01/25 05:00:48;;;;;;;41.72;32.25;;;;;;;-3.28;45.63;102815.38;5071864;28;20411;-76
2022/01/25 05:03:21;;;;;;;37.75;30.05;;;;;;;-3.46;45.85;102805.69;5070114;28;20434;-76
2022/01/25 05:05:56;;;;;;;39.27;30.30;;;;;;;-3.50;46.09;102798.75;5070473;28;20484;-75
2022/01/25 05:08:33;;;;;;;38.40;29.23;;;;;;;-3.60;46.25;102807.28;5070306;28;20415;-74
2022/01/25 05:11:06;;;;;;;50.20;35.58;;;;;;;-3.56;46.26;102802.16;5071405;28;20410;-75
2022/01/25 05:13:42;;;;;;;38.28;31.02;;;;;;;-3.32;45.87;102803.22;5071673;28;20419;-75
2022/01/25 05:16:26;;;;;;;34.55;27.60;;;;;;;-3.41;45.89;102809.19;5071562;28;20468;-74
2022/01/25 05:19:02;;;;;;;36.03;30.73;;;;;;;-3.52;46.03;102803.91;5071020;28;20417;-74
2022/01/25 05:24:14;;;;;;;45.20;38.47;;;;;;;-3.66;46.19;102803.78;5071157;28;20441;-74
2022/01/25 05:26:41;;;;;;;41.08;32.22;;;;;;;-3.65;46.17;102808.13;5053432;28;20499;-74
2022/01/25 05:29:08;;;;;;;76.20;52.35;;;;;;;-3.51;45.86;102800.44;5071737;28;20486;-75
2022/01/25 05:31:37;;;;;;;162.50;88.45;;;;;;;-3.57;46.11;102810.75;5070554;28;20426;-74
2022/01/25 05:34:07;;;;;;;114.50;70.63;;;;;;;-3.69;46.24;102803.75;5053709;28;20441;-74
2022/01/25 05:36:34;;;;;;;178.30;115.82;;;;;;;-3.65;46.20;102794.28;5053317;28;20417;-74
2022/01/25 05:39:06;;;;;;;75.05;51.10;;;;;;;-3.62;46.20;102795.19;5070713;28;20415;-74
2022/01/25 05:41:33;;;;;;;81.50;59.83;;;;;;;-3.56;45.75;102789.19;5070713;28;20454;-76
2022/01/25 05:44:24;;;;;;;59.45;41.33;;;;;;;-3.67;46.48;102783.03;5070398;28;20480;-75
2022/01/25 05:47:05;;;;;;;47.75;35.60;;;;;;;-3.59;46.15;102778.78;5068032;28;20429;-74
2022/01/25 05:49:32;;;;;;;47.28;32.83;;;;;;;-3.65;46.33;102784.81;5049474;28;20422;-73
2022/01/25 05:51:59;;;;;;;65.03;43.15;;;;;;;-3.68;46.20;102791.66;5067550;28;20507;-72
2022/01/25 05:54:26;;;;;;;42.38;30.98;;;;;;;-3.55;46.05;102787.47;5068125;28;20443;-74
2022/01/25 05:56:53;;;;;;;51.65;37.53;;;;;;;-3.38;45.69;102785.91;5070248;28;20421;-74
2022/01/25 05:59:20;;;;;;;68.07;52.30;;;;;;;-3.16;45.31;102792.13;5069546;28;20542;-73
2022/01/25 06:01:48;;;;;;;45.13;34.03;;;;;;;-2.78;44.45;102786.31;5070002;28;20411;-74
2022/01/25 06:04:17;;;;;;;53.80;40.25;;;;;;;-2.52;44.18;102788.19;5070269;28;20438;-73
2022/01/25 06:06:44;;;;;;;49.72;33.85;;;;;;;-1.63;42.38;102781.53;5069993;28;20403;-72
2022/01/25 06:09:11;;;;;;;33.60;25.77;;;;;;;-1.37;41.19;102785.88;5070663;28;20466;-73
2022/01/25 06:11:38;;;;;;;39.45;29.08;;;;;;;-0.56;40.19;102787.50;5069909;28;20453;-76
2022/01/25 06:14:06;;;;;;;50.08;35.72;;;;;;;1.00;37.24;102783.03;5071021;28;20415;-73
2022/01/25 06:16:33;;;;;;;34.40;26.10;;;;;;;2.06;35.49;102780.91;5069487;28;20497;-73
2022/01/25 06:19:00;;;;;;;68.95;47.55;;;;;;;3.09;33.79;102783.63;5069955;28;20560;-75
2022/01/25 06:21:29;;;;;;;55.03;40.08;;;;;;;3.84;32.15;102776.88;5069045;28;20506;-72
2022/01/25 06:23:56;;;;;;;79.63;54.45;;;;;;;4.61;31.01;102775.13;5069472;28;20541;-73
2022/01/25 06:26:25;;;;;;;163.77;102.40;;;;;;;5.45;29.61;102779.03;5069838;28;20414;-73
2022/01/25 06:28:52;;;;;;;81.10;54.92;;;;;;;5.68;28.93;102779.25;5069755;28;20411;-73
2022/01/25 06:31:19;;;;;;;58.55;44.28;;;;;;;6.67;27.75;102777.06;5069951;28;20494;-73
2022/01/25 06:33:48;;;;;;;135.40;96.68;;;;;;;7.51;26.66;102782.94;5070055;28;20423;-75
2022/01/25 06:36:15;;;;;;;57.17;45.55;;;;;;;8.61;25.41;102785.69;5035651;28;20429;-74
2022/01/25 06:38:44;;;;;;;33.63;30.02;;;;;;;9.31;24.29;102776.53;5069929;28;20418;-74
2022/01/25 06:41:12;;;;;;;50.95;45.63;;;;;;;9.79;23.37;102771.69;5069777;28;20414;-74
2022/01/25 06:43:39;;;;;;;40.70;36.13;;;;;;;10.54;22.36;102770.78;5069795;28;20415;-74
2022/01/25 06:46:07;;;;;;;62.17;55.60;;;;;;;11.09;21.90;102775.03;5069930;28;20493;-75
2022/01/25 06:48:34;;;;;;;37.45;33.40;;;;;;;11.57;21.22;102764.53;5051476;28;21126;-75
2022/01/25 06:51:01;;;;;;;51.43;34.97;;;;;;;13.09;19.51;102768.28;5069598;28;20927;-75
2022/01/25 06:53:29;;;;;;;41.72;37.17;;;;;;;13.82;19.15;102761.03;5069942;28;20497;-75
2022/01/25 06:55:57;;;;;;;37.72;33.70;;;;;;;13.02;19.34;102765.97;5070112;28;20415;-75
2022/01/25 06:58:24;;;;;;;32.88;29.58;;;;;;;14.19;18.58;102766.66;5068597;28;20887;-75
2022/01/25 07:00:51;;;;;;;30.15;26.52;;;;;;;14.95;17.29;102762.47;5069480;28;21023;-76
2022/01/25 07:03:18;;;;;;;39.40;35.47;;;;;;;15.45;17.08;102761.72;5068174;28;20493;-76
2022/01/25 07:05:45;;;;;;;40.38;36.22;;;;;;;15.78;16.63;102754.00;5069728;28;20434;-76
2022/01/25 07:08:12;;;;;;;54.13;48.13;;;;;;;15.19;16.83;102751.91;5069523;28;20950;-77
2022/01/25 07:10:39;;;;;;;57.17;50.20;;;;;;;15.61;16.74;102746.28;5069331;28;20453;-76
2022/01/25 07:13:08;;;;;;;59.42;53.28;;;;;;;16.65;15.72;102743.09;5069257;28;20497;-77
2022/01/25 07:15:35;;;;;;;66.75;60.00;;;;;;;16.90;15.34;102741.22;5069731;28;20501;-77
2022/01/25 07:18:02;;;;;;;39.30;35.10;;;;;;;16.70;15.70;102748.09;5069381;28;20415;-78
2022/01/25 07:20:29;;;;;;;34.08;30.42;;;;;;;17.77;15.00;102739.63;5069551;28;20411;-78
2022/01/25 07:22:56;;;;;;;47.03;41.88;;;;;;;17.15;15.27;102749.06;5069551;28;20976;-77
2022/01/25 07:25:25;;;;;;;44.63;39.80;;;;;;;17.88;14.89;102744.13;5068468;28;20462;-76
2022/01/25 07:27:52;;;;;;;41.22;37.03;;;;;;;18.26;14.55;102742.78;5069497;28;20514;-76
2022/01/25 07:30:20;;;;;;;41.83;37.40;;;;;;;18.60;14.21;102742.66;5069312;28;20410;-77
2022/01/25 07:32:47;;;;;;;48.70;43.60;;;;;;;19.39;13.23;102748.31;5068579;28;20435;-78
2022/01/25 07:35:15;;;;;;;46.33;41.72;;;;;;;18.85;13.98;102737.88;5069228;28;20498;-78
2022/01/25 07:37:41;;;;;;;50.10;44.97;;;;;;;20.14;13.07;102740.75;5069240;28;20411;-77
2022/01/25 07:40:11;;;;;;;32.00;28.90;;;;;;;19.61;13.18;102744.59;5068439;28;20798;-75
2022/01/25 07:42:39;;;;;;;28.35;25.67;;;;;;;20.43;12.46;102737.19;5068625;28;20418;-78
2022/01/25 07:45:10;;;;;;;23.80;21.50;;;;;;;20.38;12.30;102739.47;5069044;28;20433;-76
2022/01/25 07:47:39;;;;;;;23.98;21.58;;;;;;;21.60;11.74;102732.34;5068978;28;20423;-76
2022/01/25 07:50:08;;;;;;;21.45;19.35;;;;;;;22.65;11.35;102739.91;5051409;28;20801;-75
2022/01/25 07:52:36;;;;;;;22.90;20.73;;;;;;;22.67;10.80;102735.19;5067678;28;20502;-74
2022/01/25 07:55:03;;;;;;;25.33;22.92;;;;;;;22.44;10.92;102735.69;5068271;28;20904;-76
2022/01/25 07:57:30;;;;;;;25.30;22.80;;;;;;;22.64;11.13;102730.97;5068887;28;20413;-75
2022/01/25 07:59:58;;;;;;;22.13;19.83;;;;;;;22.48;10.70;102726.28;5068660;28;20410;-75
2022/01/25 08:02:25;;;;;;;21.50;19.25;;;;;;;22.40;11.17;102731.63;5068793;28;20418;-74
2022/01/25 08:04:53;;;;;;;20.88;18.92;;;;;;;22.51;11.18;102736.78;5068766;28;20518;-74
2022/01/25 08:07:20;;;;;;;21.95;19.75;;;;;;;21.93;11.28;102737.22;5068958;28;20513;-74
2022/01/25 08:09:48;;;;;;;25.00;22.48;;;;;;;23.94;10.11;102732.59;5067727;28;20499;-76
2022/01/25 08:12:16;;;;;;;24.30;21.70;;;;;;;23.00;10.58;102725.44;5069160;28;20468;-76
2022/01/25 08:14:44;;;;;;;23.77;20.50;;;;;;;22.84;10.30;102718.09;5068584;28;20434;-77
2022/01/25 08:17:11;;;;;;;23.23;21.00;;;;;;;23.73;9.91;102724.91;5068909;28;20500;-76
2022/01/25 08:19:38;;;;;;;23.02;20.55;;;;;;;24.24;10.24;102730.25;5068641;28;20490;-75
2022/01/25 08:22:08;;;;;;;21.80;19.75;;;;;;;24.58;9.71;102730.09;5068831;28;20502;-75
2022/01/25 08:24:34;;;;;;;22.02;19.92;;;;;;;24.64;9.35;102730.47;5071651;28;20501;-75
2022/01/25 08:27:02;;;;;;;19.92;17.85;;;;;;;23.16;10.26;102730.13;5072434;28;20446;-77
2022/01/25 08:29:28;;;;;;;19.83;17.85;;;;;;;23.56;9.87;102734.00;5072067;28;20453;-77
2022/01/25 08:31:55;;;;;;;20.77;18.63;;;;;;;25.03;9.30;102729.69;5072387;28;20415;-77
2022/01/25 08:34:22;;;;;;;22.48;20.27;;;;;;;24.63;9.37;102723.31;5072202;28;20494;-77
2022/01/25 08:36:49;;;;;;;30.20;23.58;;;;;;;23.40;10.29;102719.41;5071855;28;20407;-76
2022/01/25 08:39:18;;;;;;;35.42;26.77;;;;;;;24.23;10.03;102725.00;5072422;28;20411;-77
2022/01/25 08:41:45;;;;;;;27.02;23.98;;;;;;;26.34;8.53;102718.13;5072006;28;20485;-76
2022/01/25 08:44:12;;;;;;;38.47;34.30;;;;;;;26.67;8.80;102710.50;5071991;28;20431;-77
2022/01/25 08:46:40;;;;;;;25.70;23.08;;;;;;;26.09;8.83;102718.28;5071824;28;20507;-77
2022/01/25 08:49:07;;;;;;;27.03;24.23;;;;;;;25.80;8.69;102719.00;5071669;28;20419;-78
2022/01/25 08:51:34;;;;;;;24.60;22.13;;;;;;;25.71;9.03;102718.22;5071899;28;20486;-76
2022/01/25 08:54:01;;;;;;;32.13;26.33;;;;;;;26.61;8.79;102715.84;5071995;28;20414;-78
2022/01/25 08:56:30;;;;;;;24.75;22.33;;;;;;;26.69;8.60;102707.59;5071029;28;20429;-77
2022/01/25 08:58:57;;;;;;;24.00;21.58;;;;;;;27.19;8.33;102716.88;5072146;28;20442;-76
2022/01/25 09:01:24;;;;;;;33.55;30.40;;;;;;;27.03;8.26;102706.19;5071230;28;20513;-77
2022/01/25 09:03:50;;;;;;;55.60;50.15;;;;;;;27.97;8.10;102707.13;5068542;28;20407;-76
2022/01/25 09:06:18;;;;;;;26.10;23.33;;;;;;;28.44;7.91;102710.25;5069218;28;20427;-75
2022/01/25 09:08:45;;;;;;;20.92;18.98;;;;;;;27.37;8.37;102709.19;5069600;28;20498;-76
2022/01/25 09:11:12;;;;;;;29.80;26.92;;;;;;;28.37;7.75;102701.19;5070569;28;20993;-76
2022/01/25 09:13:40;;;;;;;23.38;21.25;;;;;;;27.87;7.73;102697.59;5071151;28;20410;-77
2022/01/25 09:16:08;;;;;;;21.85;19.70;;;;;;;29.24;7.41;102690.81;5053187;28;20439;-76
2022/01/25 09:18:36;;;;;;;22.73;20.35;;;;;;;28.61;7.40;102694.47;5069629;28;20502;-76
2022/01/25 09:21:03;;;;;;;24.13;21.67;;;;;;;27.96;7.77;102685.53;5070540;28;20486;-74
2022/01/25 09:23:31;;;;;;;22.98;20.63;;;;;;;29.14;7.50;102683.88;5070317;28;20422;-77
2022/01/25 09:25:58;;;;;;;20.45;18.40;;;;;;;27.76;7.91;102678.00;5070800;28;20431;-76
2022/01/25 09:28:26;;;;;;;19.85;17.95;;;;;;;27.76;7.86;102669.00;5070505;28;20407;-76
2022/01/25 09:30:54;;;;;;;22.07;19.97;;;;;;;29.86;6.95;102667.91;5071132;28;20509;-74
2022/01/25 09:33:22;;;;;;;31.67;27.10;;;;;;;29.10;7.53;102668.94;5071152;28;20414;-75
2022/01/25 09:35:49;;;;;;;30.45;27.67;;;;;;;27.88;7.90;102675.63;5070325;28;20502;-75
2022/01/25 09:38:16;;;;;;;28.73;26.10;;;;;;;28.51;7.56;102673.03;5071344;28;20423;-76
2022/01/25 09:40:43;;;;;;;101.47;92.35;;;;;;;29.21;7.29;102656.59;5070795;28;20413;-75
2022/01/25 09:43:11;;;;;;;66.78;59.65;;;;;;;30.37;6.92;102650.03;5070790;28;20434;-77
2022/01/25 09:45:39;;;;;;;20.95;16.73;;;;;;;30.22;6.58;102657.63;5070475;28;20469;-77
2022/01/25 09:48:09;;;;;;;17.38;15.18;;;;;;;31.70;5.97;102648.66;5070926;28;20423;-77
2022/01/25 09:50:37;;;;;;;16.88;15.05;;;;;;;31.57;5.89;102637.78;5070311;28;20494;-75
2022/01/25 09:53:04;;;;;;;13.77;12.38;;;;;;;30.27;6.01;102634.06;5070918;28;20513;-76
2022/01/25 09:55:33;;;;;;;14.10;12.48;;;;;;;29.50;6.16;102638.19;5070448;28;20411;-77
2022/01/25 09:58:02;;;;;;;13.15;11.18;;;;;;;29.34;6.11;102634.81;5070575;28;20485;-76
2022/01/25 10:00:31;;;;;;;13.13;10.55;;;;;;;28.01;6.76;102630.47;5070414;28;20422;-76
2022/01/25 10:03:06;;;;;;;10.70;9.40;;;;;;;28.07;6.25;102622.34;5070539;28;20476;-76
2022/01/25 10:05:38;;;;;;;27.77;25.17;;;;;;;27.10;6.31;102620.91;5070329;28;21023;-76
2022/01/25 10:08:08;;;;;;;18.00;14.35;;;;;;;25.91;7.03;102609.13;5070110;28;20417;-75
2022/01/25 10:10:37;;;;;;;22.60;16.10;;;;;;;25.38;7.79;102609.88;5070089;28;20411;-77
2022/01/25 10:13:14;;;;;;;13.60;11.65;;;;;;;26.15;7.28;102600.75;5070440;28;20411;-76
2022/01/25 10:15:42;;;;;;;19.02;13.48;;;;;;;26.75;7.03;102600.81;5070296;28;20431;-76
2022/01/25 10:18:09;;;;;;;18.88;11.88;;;;;;;25.78;6.88;102594.28;5070273;28;20443;-76
2022/01/25 10:20:41;;;;;;;15.30;11.77;;;;;;;24.02;8.20;102584.72;5069847;28;20445;-76
2022/01/25 10:23:13;;;;;;;13.50;11.13;;;;;;;24.07;8.27;102583.22;5069765;28;21211;-77
2022/01/25 10:25:42;;;;;;;15.03;11.63;;;;;;;25.76;7.65;102579.22;5069989;28;20530;-77
2022/01/25 10:28:13;;;;;;;12.25;10.70;;;;;;;25.64;7.35;102576.06;5069470;28;20870;-76
2022/01/25 10:30:49;;;;;;;12.20;11.00;;;;;;;26.65;6.79;102584.78;5069949;28;20414;-77
2022/01/25 10:33:24;;;;;;;13.43;9.88;;;;;;;26.30;6.61;102572.78;5069210;28;20482;-75
2022/01/25 10:35:52;;;;;;;18.63;12.95;;;;;;;25.67;7.21;102570.31;5069103;28;20855;-77
2022/01/25 10:38:22;;;;;;;12.55;10.75;;;;;;;24.55;7.64;102576.03;5069668;28;20498;-77
2022/01/25 10:41:02;;;;;;;14.60;10.23;;;;;;;23.96;8.10;102565.44;5069892;28;20498;-78
2022/01/25 10:43:30;;;;;;;14.85;10.63;;;;;;;23.46;8.02;102552.91;5069296;28;20418;-77
2022/01/25 10:46:17;;;;;;;13.40;11.70;;;;;;;24.53;8.23;102555.53;5068627;28;20427;-77
2022/01/25 10:48:49;;;;;;;12.13;10.27;;;;;;;22.08;8.72;102538.69;5069725;28;20422;-76
2022/01/25 10:51:20;;;;;;;30.98;15.32;;;;;;;21.81;9.05;102537.78;5069555;28;20490;-77
2022/01/25 10:53:57;;;;;;;43.53;30.80;;;;;;;21.49;9.48;102534.84;5069215;28;20494;-77
2022/01/25 10:56:25;;;;;;;18.65;11.65;;;;;;;22.40;8.57;102529.97;5069330;28;20584;-77
2022/01/25 10:59:00;;;;;;;12.93;11.45;;;;;;;23.14;8.50;102527.53;5069668;28;20506;-77
2022/01/25 11:01:31;;;;;;;12.05;10.23;;;;;;;24.00;8.36;102520.75;5069145;28;20422;-78
2022/01/25 11:04:05;;;;;;;13.98;12.50;;;;;;;21.57;9.12;102522.28;5069250;28;20411;-77
2022/01/25 11:06:34;;;;;;;11.32;10.23;;;;;;;22.26;8.64;102508.94;5069310;28;20928;-77
2022/01/25 11:09:04;;;;;;;15.18;10.25;;;;;;;23.47;8.29;102511.31;5069197;28;20413;-77
2022/01/25 11:11:36;;;;;;;13.10;11.65;;;;;;;23.76;8.21;102510.81;5068815;28;20800;-75
2022/01/25 11:16:45;;;;;;;12.15;10.88;;;;;;;20.53;9.60;102493.00;5068045;28;20498;-77
2022/01/25 11:19:12;;;;;;;13.63;11.85;;;;;;;20.59;10.09;102484.38;5069061;28;20498;-76
2022/01/25 11:21:43;;;;;;;14.43;13.00;;;;;;;19.76;10.25;102492.28;5069193;28;20501;-77
2022/01/25 11:24:12;;;;;;;12.80;11.47;;;;;;;20.30;10.04;102495.25;5051254;28;20414;-76
2022/01/25 11:26:40;;;;;;;21.88;16.65;;;;;;;19.46;10.56;102492.44;5068902;28;20513;-75
2022/01/25 11:29:09;;;;;;;14.68;13.00;;;;;;;18.40;10.89;102486.72;5068981;28;20415;-76
2022/01/25 11:31:39;;;;;;;16.92;15.13;;;;;;;18.96;10.76;102486.19;5069068;28;20859;-76
2022/01/25 11:34:11;;;;;;;16.92;13.60;;;;;;;17.58;11.62;102485.69;5069105;28;20904;-76
2022/01/25 11:36:46;;;;;;;29.17;18.88;;;;;;;17.39;12.19;102478.31;5069136;28;20422;-76
2022/01/25 11:39:20;;;;;;;17.65;12.52;;;;;;;18.36;11.51;102475.41;5069160;28;20501;-76
2022/01/25 11:41:47;;;;;;;17.67;14.55;;;;;;;16.87;11.88;102469.28;5069178;28;20414;-76
2022/01/25 11:44:18;;;;;;;18.67;16.60;;;;;;;15.49;13.12;102467.59;5069256;28;20424;-76
2022/01/25 11:46:50;;;;;;;28.13;21.55;;;;;;;13.88;13.81;102471.19;5068682;28;20460;-76
2022/01/25 11:49:20;;;;;;;40.17;25.30;;;;;;;12.66;15.15;102457.06;5068764;28;20402;-75
2022/01/25 11:52:05;;;;;;;29.70;18.38;;;;;;;11.31;16.15;102468.75;5068846;28;20506;-76
2022/01/25 11:54:32;;;;;;;28.73;18.50;;;;;;;10.98;16.12;102459.16;5068621;28;20505;-75
2022/01/25 11:57:11;;;;;;;35.13;21.57;;;;;;;10.29;16.73;102458.47;5069004;28;20414;-75
2022/01/25 11:59:38;;;;;;;25.13;18.00;;;;;;;10.55;16.77;102450.94;5072766;28;20440;-75
2022/01/25 12:02:05;;;;;;;25.50;16.40;;;;;;;9.55;17.44;102448.22;5072666;28;20498;-75
2022/01/25 12:04:32;;;;;;;34.65;19.25;;;;;;;8.95;18.20;102438.84;5072666;28;20415;-75
2022/01/25 12:07:08;;;;;;;47.72;28.58;;;;;;;8.64;18.39;102439.47;5072891;28;20911;-75
2022/01/25 12:09:46;;;;;;;40.25;25.48;;;;;;;8.63;18.75;102435.94;5072287;28;20410;-75
2022/01/25 12:12:15;;;;;;;73.82;34.30;;;;;;;8.00;19.58;102430.88;5072295;28;20423;-75
2022/01/25 12:14:45;;;;;;;37.22;19.98;;;;;;;7.50;19.59;102433.94;5072303;28;20413;-76
2022/01/25 12:17:15;;;;;;;41.03;20.30;;;;;;;7.31;19.87;102440.91;5072164;28;20422;-76
2022/01/25 12:19:47;;;;;;;36.35;19.77;;;;;;;7.38;20.09;102437.94;5072089;28;20900;-76
2022/01/25 12:22:34;;;;;;;41.75;19.13;;;;;;;6.56;20.31;102439.47;5070858;28;21002;-75
2022/01/25 12:25:08;;;;;;;48.00;21.58;;;;;;;6.19;20.91;102425.09;5071060;28;20413;-74
2022/01/25 12:27:40;;;;;;;34.90;16.70;;;;;;;6.18;21.27;102432.13;5068602;28;20800;-75
2022/01/25 12:30:12;;;;;;;27.42;13.75;;;;;;;6.10;21.51;102431.53;5070153;28;21119;-75
2022/01/25 12:32:49;;;;;;;24.85;14.07;;;;;;;6.19;21.35;102431.19;5070031;28;20908;-75
2022/01/25 12:35:17;;;;;;;41.45;19.17;;;;;;;6.32;21.44;102421.06;5070689;28;20807;-75
2022/01/25 12:38:06;;;;;;;53.83;23.13;;;;;;;6.70;21.39;102423.16;5071705;28;20800;-76
2022/01/25 12:40:42;;;;;;;27.42;14.77;;;;;;;6.70;21.30;102425.78;5072195;28;20435;-74